createdAt,value
2018-07-21T00:00:26.448Z,95699.63
2018-07-21T00:02:57.212Z,95696.23
2018-07-21T00:05:27.756Z,95705.31
2018-07-21T00:07:58.212Z,95699.11
2018-07-21T00:10:28.612Z,95699.59
2018-07-21T00:13:01.058Z,95692.67
2018-07-21T00:15:31.474Z,95691.42
2018-07-21T00:18:02.784Z,95693.89
2018-07-21T00:20:33.828Z,95694.52
2018-07-21T00:23:04.650Z,95698.25
2018-07-21T00:25:35.116Z,95697.92
2018-07-21T00:28:05.453Z,95695.31
2018-07-21T00:30:35.899Z,95694.70
2018-07-21T00:33:06.580Z,95695.78
2018-07-21T00:35:37.004Z,95688.84
2018-07-21T00:38:07.498Z,95684.56
2018-07-21T00:40:37.932Z,95686.97
2018-07-21T00:43:08.594Z,95691.28
2018-07-21T00:45:38.946Z,95691.73
2018-07-21T00:48:09.448Z,95692.34
2018-07-21T00:50:39.806Z,95691.55
2018-07-21T00:53:10.496Z,95692.89
2018-07-21T00:55:41.230Z,95689.81
2018-07-21T00:58:11.043Z,95687.80
2018-07-21T01:00:41.432Z,95683.52
2018-07-21T01:03:11.774Z,95682.73
2018-07-21T01:05:41.618Z,95682.40
2018-07-21T01:08:11.424Z,95684.25
2018-07-21T01:10:41.259Z,95678.13
2018-07-21T01:13:11.051Z,95678.41
2018-07-21T01:15:41.533Z,95676.12
2018-07-21T01:18:11.897Z,95675.05
2018-07-21T01:20:42.133Z,95672.11
2018-07-21T01:23:12.772Z,95660.92
2018-07-21T01:25:42.628Z,95659.06
2018-07-21T01:28:12.947Z,95664.77
2018-07-21T01:30:43.318Z,95656.78
2018-07-21T01:33:13.639Z,95656.64
2018-07-21T01:35:44.039Z,95651.41
2018-07-21T01:38:13.808Z,95646.49
2018-07-21T01:40:44.020Z,95651.55
2018-07-21T01:43:14.414Z,95648.18
2018-07-21T01:45:44.915Z,95651.24
2018-07-21T01:48:15.921Z,95641.56
2018-07-21T01:50:46.147Z,95635.09
2018-07-21T01:53:16.033Z,95643.56
2018-07-21T01:55:45.867Z,95642.48
2018-07-21T01:58:15.971Z,95642.17
2018-07-21T02:00:45.783Z,95636.95
2018-07-21T02:03:16.159Z,95635.41
2018-07-21T02:05:46.955Z,95634.45
2018-07-21T02:08:17.111Z,95637.22
2018-07-21T02:10:46.975Z,95636.75
2018-07-21T02:13:17.168Z,95637.82
2018-07-21T02:15:47.654Z,95629.83
2018-07-21T02:18:17.805Z,95628.16
2018-07-21T02:20:47.610Z,95629.39
2018-07-21T02:23:17.390Z,95633.07
2018-07-21T02:25:47.739Z,95636.61
2018-07-21T02:28:17.683Z,95629.83
2018-07-21T02:30:47.499Z,95633.68
2018-07-21T02:33:17.329Z,95629.23
2018-07-21T02:35:47.131Z,95628.58
2018-07-21T02:38:16.921Z,95628.14
2018-07-21T02:40:46.873Z,95634.98
2018-07-21T02:43:16.716Z,95628.28
2018-07-21T02:45:46.512Z,95626.29
2018-07-21T02:48:16.477Z,95630.84
2018-07-21T02:50:46.249Z,95629.05
2018-07-21T02:53:16.889Z,95634.72
2018-07-21T02:55:46.727Z,95625.69
2018-07-21T02:58:16.692Z,95631.52
2018-07-21T03:00:47.057Z,95632.94
2018-07-21T03:03:17.431Z,95622.19
2018-07-21T03:05:47.539Z,95621.71
2018-07-21T03:08:17.926Z,95621.55
2018-07-21T03:10:48.287Z,95618.95
2018-07-21T03:13:18.631Z,95615.41
2018-07-21T03:15:48.759Z,95621.95
2018-07-21T03:18:19.125Z,95614.73
2018-07-21T03:20:49.257Z,95616.76
2018-07-21T03:23:19.130Z,95618.27
2018-07-21T03:25:48.877Z,95612.78
2018-07-21T03:28:18.812Z,95608.20
2018-07-21T03:30:48.901Z,95616.19
2018-07-21T03:33:19.451Z,95614.33
2018-07-21T03:35:49.273Z,95615.58
2018-07-21T03:38:19.839Z,95618.04
2018-07-21T03:40:50.249Z,95619.42
2018-07-21T03:43:20.585Z,95627.11
2018-07-21T03:45:50.931Z,95623.44
2018-07-21T03:48:20.789Z,95621.88
2018-07-21T03:50:51.519Z,95627.41
2018-07-21T03:53:21.927Z,95628.36
2018-07-21T03:55:52.312Z,95630.20
2018-07-21T03:58:22.671Z,95626.03
2018-07-21T04:00:53.023Z,95623.73
2018-07-21T04:03:23.659Z,95625.86
2018-07-21T04:05:54.280Z,95629.97
2018-07-21T04:08:24.632Z,95634.68
2018-07-21T04:10:55.014Z,95628.50
2018-07-21T04:13:24.841Z,95629.57
2018-07-21T04:15:54.619Z,95626.94
2018-07-21T04:18:24.400Z,95630.47
2018-07-21T04:20:54.195Z,95627.53
2018-07-21T04:23:24.190Z,95634.56
2018-07-21T04:25:54.001Z,95639.31
2018-07-21T04:28:23.786Z,95636.89
2018-07-21T04:30:53.698Z,95642.27
2018-07-21T04:33:23.467Z,95648.13
2018-07-21T04:35:53.239Z,95658.39
2018-07-21T04:38:23.094Z,95665.31
2018-07-21T04:40:53.121Z,95660.75
2018-07-21T04:43:23.491Z,95657.55
2018-07-21T04:45:53.672Z,95663.25
2018-07-21T04:48:23.806Z,95658.54
2018-07-21T04:50:54.221Z,95655.78
2018-07-21T04:53:24.586Z,95661.23
2018-07-21T04:55:54.935Z,95659.05
2018-07-21T04:58:24.717Z,95662.24
2018-07-21T05:00:54.647Z,95654.79
2018-07-21T05:03:24.569Z,95664.30
2018-07-21T05:05:55.275Z,95659.59
2018-07-21T05:08:25.115Z,95656.13
2018-07-21T05:10:55.600Z,95663.77
2018-07-21T05:13:25.491Z,95658.13
2018-07-21T05:15:55.397Z,95664.82
2018-07-21T05:18:25.198Z,95670.45
2018-07-21T05:20:55.094Z,95671.37
2018-07-21T05:23:25.259Z,95672.32
2018-07-21T05:25:55.080Z,95669.20
2018-07-21T05:28:25.277Z,95667.69
2018-07-21T05:30:55.117Z,95672.26
2018-07-21T05:33:24.925Z,95669.67
2018-07-21T05:35:54.828Z,95668.88
2018-07-21T05:38:24.640Z,95668.30
2018-07-21T05:40:54.402Z,95668.43
2018-07-21T05:43:24.460Z,95660.42
2018-07-21T05:45:54.228Z,95667.87
2018-07-21T05:48:23.971Z,95668.67
2018-07-21T05:50:53.782Z,95662.54
2018-07-21T05:53:23.902Z,95665.30
2018-07-21T05:55:53.700Z,95666.98
2018-07-21T05:58:23.506Z,95669.33
2018-07-21T06:00:53.332Z,95675.16
2018-07-21T06:03:23.486Z,95672.75
2018-07-21T06:05:53.284Z,95676.12
2018-07-21T06:08:23.102Z,95675.83
2018-07-21T06:10:52.960Z,95671.81
2018-07-21T06:13:22.750Z,95676.89
2018-07-21T06:15:52.544Z,95674.27
2018-07-21T06:18:22.358Z,95665.68
2018-07-21T06:20:52.182Z,95674.73
2018-07-21T06:23:22.085Z,95673.05
2018-07-21T06:25:52.716Z,95671.50
2018-07-21T06:28:22.514Z,95673.66
2018-07-21T06:30:52.456Z,95682.73
2018-07-21T06:33:22.337Z,95676.30
2018-07-21T06:35:52.138Z,95694.47
2018-07-21T06:38:21.984Z,95695.56
2018-07-21T06:40:51.766Z,95695.86
2018-07-21T06:43:22.199Z,95703.12
2018-07-21T06:45:52.072Z,95699.46
2018-07-21T06:48:21.824Z,95708.13
2018-07-21T06:50:52.148Z,95705.84
2018-07-21T06:53:22.484Z,95710.16
2018-07-21T06:55:52.840Z,95712.02
2018-07-21T06:58:23.326Z,95718.31
2018-07-21T07:00:53.708Z,95725.59
2018-07-21T07:03:24.138Z,95735.13
2018-07-21T07:05:54.528Z,95738.53
2018-07-21T07:08:24.934Z,95741.75
2018-07-21T07:10:55.308Z,95740.81
2018-07-21T07:13:25.804Z,95751.98
2018-07-21T07:15:56.116Z,95752.86
2018-07-21T07:18:26.571Z,95758.83
2018-07-21T07:20:57.004Z,95756.36
2018-07-21T07:23:27.462Z,95754.03
2018-07-21T07:25:57.828Z,95750.52
2018-07-21T07:28:28.190Z,95757.91
2018-07-21T07:30:58.592Z,95759.78
2018-07-21T07:33:29.212Z,95760.25
2018-07-21T07:36:00.047Z,95765.18
2018-07-21T07:38:30.755Z,95760.45
2018-07-21T07:43:30.475Z,95767.81
2018-07-21T07:46:01.005Z,95767.07
2018-07-21T07:48:31.430Z,95763.66
2018-07-21T07:51:01.896Z,95759.34
2018-07-21T07:53:32.607Z,95760.45
2018-07-21T07:56:03.385Z,95756.52
2018-07-21T07:58:34.392Z,95761.14
2018-07-21T08:01:04.926Z,95763.89
2018-07-21T08:03:36.436Z,95769.29
2018-07-21T08:06:07.182Z,95769.89
2018-07-21T08:08:37.535Z,95764.69
2018-07-21T08:11:07.951Z,95753.54
2018-07-21T08:13:38.349Z,95751.24
2018-07-21T08:16:08.795Z,95747.40
2018-07-21T08:18:39.203Z,95746.66
2018-07-21T08:21:09.685Z,95746.81
2018-07-21T08:23:40.061Z,95740.39
2018-07-21T08:26:10.949Z,95739.75
2018-07-21T08:28:41.663Z,95741.78
2018-07-21T08:31:12.659Z,95742.25
2018-07-21T08:33:43.063Z,95738.52
2018-07-21T08:36:13.479Z,95746.39
2018-07-21T08:38:44.007Z,95746.05
2018-07-21T08:41:14.410Z,95743.91
2018-07-21T08:43:44.813Z,95739.07
2018-07-21T08:46:15.289Z,95737.59
2018-07-21T08:48:45.687Z,95742.63
2018-07-21T08:51:16.248Z,95735.50
2018-07-21T08:53:46.903Z,95732.82
2018-07-21T08:56:17.365Z,95743.97
2018-07-21T08:58:47.725Z,95744.55
2018-07-21T09:01:18.161Z,95739.92
2018-07-21T09:03:48.509Z,95744.78
2018-07-21T09:06:18.956Z,95748.05
2018-07-21T09:08:49.755Z,95746.17
2018-07-21T09:11:20.549Z,95746.19
2018-07-21T09:13:50.927Z,95739.53
2018-07-21T09:16:21.651Z,95744.05
2018-07-21T09:18:52.017Z,95741.91
2018-07-21T09:21:22.824Z,95746.45
2018-07-21T09:23:53.561Z,95746.50
2018-07-21T09:26:23.957Z,95746.48
2018-07-21T09:28:54.777Z,95743.50
2018-07-21T09:31:25.177Z,95746.58
2018-07-21T09:33:56.093Z,95746.16
2018-07-21T09:36:26.589Z,95750.06
2018-07-21T09:38:56.943Z,95753.02
2018-07-21T09:41:27.359Z,95753.89
2018-07-21T09:43:57.719Z,95753.94
2018-07-21T09:46:28.267Z,95754.91
2018-07-21T09:48:58.633Z,95754.70
2018-07-21T09:51:28.992Z,95748.92
2018-07-21T09:53:59.378Z,95755.60
2018-07-21T09:56:29.825Z,95752.69
2018-07-21T09:59:00.281Z,95754.81
2018-07-21T10:01:30.690Z,95757.59
2018-07-21T10:04:01.274Z,95759.27
2018-07-21T10:06:31.855Z,95752.19
2018-07-21T10:09:02.216Z,95754.27
2018-07-21T10:11:32.532Z,95749.01
2018-07-21T10:14:02.985Z,95752.22
2018-07-21T10:16:33.323Z,95750.52
2018-07-21T10:19:03.717Z,95746.19
2018-07-21T10:21:34.511Z,95747.18
2018-07-21T10:24:10.354Z,95743.91
2018-07-21T10:26:45.758Z,95748.06
2018-07-21T10:29:16.086Z,95746.99
2018-07-21T10:31:46.526Z,95747.75
2018-07-21T10:34:17.232Z,95740.33
2018-07-21T10:36:47.633Z,95749.45
2018-07-21T10:39:17.986Z,95745.42
2018-07-21T10:41:48.442Z,95746.73
2018-07-21T10:44:18.835Z,95749.08
2018-07-21T10:46:49.230Z,95746.97
2018-07-21T10:49:19.726Z,95746.75
2018-07-21T10:51:50.097Z,95744.92
2018-07-21T10:54:20.477Z,95741.53
2018-07-21T10:56:51.516Z,95747.59
2018-07-21T10:59:21.904Z,95741.17
2018-07-21T11:01:52.733Z,95747.58
2018-07-21T11:04:23.166Z,95745.52
2018-07-21T11:06:53.574Z,95753.57
2018-07-21T11:09:24.288Z,95747.65
2018-07-21T11:11:54.628Z,95738.90
2018-07-21T11:14:25.106Z,95749.16
2018-07-21T11:16:55.484Z,95741.17
2018-07-21T11:19:25.983Z,95741.30
2018-07-21T11:21:56.430Z,95733.75
2018-07-21T11:24:27.066Z,95738.41
2018-07-21T11:26:57.456Z,95732.91
2018-07-21T11:29:27.900Z,95736.84
2018-07-21T11:31:58.338Z,95726.33
2018-07-21T11:34:28.772Z,95729.88
2018-07-21T11:36:59.189Z,95731.98
2018-07-21T11:39:29.534Z,95728.15
2018-07-21T11:41:59.908Z,95734.50
2018-07-21T11:44:30.750Z,95731.98
2018-07-21T11:47:01.266Z,95734.10
2018-07-21T11:49:31.678Z,95735.12
2018-07-21T11:52:02.085Z,95736.86
2018-07-21T11:54:32.466Z,95734.50
2018-07-21T11:57:03.364Z,95740.29
2018-07-21T11:59:33.966Z,95745.95
2018-07-21T12:02:04.608Z,95749.36
2018-07-21T12:04:35.030Z,95750.09
2018-07-21T12:07:05.480Z,95742.70
2018-07-21T12:09:35.916Z,95741.07
2018-07-21T12:12:06.418Z,95736.34
2018-07-21T12:14:36.816Z,95740.08
2018-07-21T12:17:07.255Z,95736.86
2018-07-21T12:19:37.624Z,95741.92
2018-07-21T12:22:08.170Z,95736.88
2018-07-21T12:24:38.556Z,95743.23
2018-07-21T12:27:09.282Z,95744.62
2018-07-21T12:29:39.734Z,95739.95
2018-07-21T12:32:10.128Z,95743.34
2018-07-21T12:34:40.480Z,95738.13
2018-07-21T12:37:10.916Z,95736.61
2018-07-21T12:39:41.256Z,95740.84
2018-07-21T12:42:11.694Z,95737.80
2018-07-21T12:44:42.347Z,95735.34
2018-07-21T12:47:12.990Z,95741.91
2018-07-21T12:49:43.577Z,95735.76
2018-07-21T12:52:13.990Z,95739.48
2018-07-21T12:54:44.376Z,95737.78
2018-07-21T12:57:14.729Z,95737.27
2018-07-21T12:59:45.123Z,95736.72
2018-07-21T13:02:15.866Z,95737.17
2018-07-21T13:04:46.233Z,95738.31
2018-07-21T13:07:16.593Z,95737.83
2018-07-21T13:09:47.007Z,95737.27
2018-07-21T13:12:18.265Z,95733.95
2018-07-21T13:14:48.643Z,95729.20
2018-07-21T13:17:19.927Z,95728.19
2018-07-21T13:19:50.357Z,95729.64
2018-07-21T13:22:20.886Z,95734.64
2018-07-21T13:24:51.814Z,95731.23
2018-07-21T13:27:22.224Z,95733.34
2018-07-21T13:29:52.474Z,95737.53
2018-07-21T13:32:22.867Z,95736.53
2018-07-21T13:34:54.124Z,95750.09
2018-07-21T13:37:24.601Z,95748.83
2018-07-21T13:39:58.117Z,95748.19
2018-07-21T13:42:29.014Z,95742.92
2018-07-21T13:44:59.401Z,95747.28
2018-07-21T13:47:29.830Z,95754.92
2018-07-21T13:50:00.321Z,95749.78
2018-07-21T13:52:30.788Z,95747.34
2018-07-21T13:55:01.500Z,95740.48
2018-07-21T13:57:32.488Z,95742.58
2018-07-21T14:00:03.189Z,95740.40
2018-07-21T14:02:33.598Z,95755.94
2018-07-21T14:05:04.077Z,95751.55
2018-07-21T14:07:34.518Z,95750.80
2018-07-21T14:10:05.124Z,95755.84
2018-07-21T14:12:35.807Z,95755.13
2018-07-21T14:15:06.768Z,95751.12
2018-07-21T14:17:37.216Z,95754.67
2018-07-21T14:20:07.920Z,95747.46
2018-07-21T14:22:38.435Z,95746.95
2018-07-21T14:25:09.575Z,95747.28
2018-07-21T14:27:40.039Z,95750.69
2018-07-21T14:30:10.607Z,95747.73
2018-07-21T14:32:41.501Z,95743.35
2018-07-21T14:35:12.625Z,95750.13
2018-07-21T14:37:42.951Z,95750.22
2018-07-21T14:40:13.333Z,95754.14
2018-07-21T14:42:44.635Z,95753.06
2018-07-21T14:45:15.047Z,95757.77
2018-07-21T14:47:45.489Z,95756.53
2018-07-21T14:50:17.855Z,95754.92
2018-07-21T14:52:49.108Z,95757.31
2018-07-21T14:55:19.776Z,95759.67
2018-07-21T14:57:50.357Z,95758.89
2018-07-21T15:00:20.733Z,95762.86
2018-07-21T15:02:51.081Z,95768.67
2018-07-21T15:05:21.789Z,95767.89
2018-07-21T15:07:52.169Z,95767.05
2018-07-21T15:10:22.649Z,95772.59
2018-07-21T15:12:53.075Z,95773.03
2018-07-21T15:15:23.473Z,95769.72
2018-07-21T15:17:53.950Z,95773.16
2018-07-21T15:20:24.445Z,95767.59
2018-07-21T15:22:54.477Z,95768.34
2018-07-21T15:25:24.869Z,95768.28
2018-07-21T15:27:55.245Z,95768.83
2018-07-21T15:30:25.675Z,95765.38
2018-07-21T15:32:56.169Z,95766.93
2018-07-21T15:35:26.599Z,95764.21
2018-07-21T15:37:57.001Z,95769.92
2018-07-21T15:40:27.440Z,95766.66
2018-07-21T15:42:57.961Z,95772.85
2018-07-21T15:45:28.481Z,95772.08
2018-07-21T15:47:58.861Z,95773.48
2018-07-21T15:50:29.303Z,95777.17
2018-07-21T15:52:59.740Z,95778.11
2018-07-21T15:55:30.543Z,95771.48
2018-07-21T15:58:01.259Z,95782.15
2018-07-21T16:00:31.953Z,95775.52
2018-07-21T16:03:02.327Z,95778.44
2018-07-21T16:05:32.683Z,95775.10
2018-07-21T16:08:03.288Z,95785.13
2018-07-21T16:10:33.675Z,95779.28
2018-07-21T16:13:04.003Z,95782.66
2018-07-21T16:15:34.397Z,95784.97
2018-07-21T16:18:04.733Z,95787.74
2018-07-21T16:20:35.129Z,95782.94
2018-07-21T16:23:05.556Z,95784.77
2018-07-21T16:25:35.898Z,95781.67
2018-07-21T16:28:06.508Z,95786.91
2018-07-21T16:30:36.903Z,95780.83
2018-07-21T16:33:07.396Z,95786.54
2018-07-21T16:35:37.744Z,95790.56
2018-07-21T16:38:08.162Z,95784.33
2018-07-21T16:40:38.545Z,95791.45
2018-07-21T16:43:09.220Z,95794.21
2018-07-21T16:45:39.890Z,95791.78
2018-07-21T16:48:10.307Z,95794.09
2018-07-21T16:50:40.713Z,95793.47
2018-07-21T16:53:11.167Z,95788.26
2018-07-21T16:55:41.925Z,95792.55
2018-07-21T16:58:12.455Z,95786.86
2018-07-21T17:00:43.149Z,95785.60
2018-07-21T17:03:13.663Z,95788.23
2018-07-21T17:05:44.022Z,95783.93
2018-07-21T17:08:14.542Z,95776.39
2018-07-21T17:10:45.385Z,95786.23
2018-07-21T17:13:15.855Z,95788.86
2018-07-21T17:15:47.327Z,95782.86
2018-07-21T17:18:20.109Z,95788.24
2018-07-21T17:20:51.061Z,95793.63
2018-07-21T17:23:21.492Z,95797.64
2018-07-21T17:25:51.881Z,95788.38
2018-07-21T17:28:24.101Z,95787.78
2018-07-21T17:30:54.503Z,95785.91
2018-07-21T17:33:24.901Z,95787.17
2018-07-21T17:35:55.419Z,95787.18
2018-07-21T17:38:25.948Z,95783.45
2018-07-21T17:40:56.326Z,95781.49
2018-07-21T17:43:28.479Z,95783.94
2018-07-21T17:46:02.081Z,95785.17
2018-07-21T17:48:32.467Z,95784.53
2018-07-21T17:51:02.830Z,95783.94
2018-07-21T17:53:33.267Z,95790.12
2018-07-21T17:56:03.613Z,95795.02
2018-07-21T17:58:34.038Z,95793.65
2018-07-21T18:01:04.399Z,95803.03
2018-07-21T18:03:34.707Z,95793.33
2018-07-21T18:06:05.227Z,95789.94
2018-07-21T18:08:35.991Z,95792.24
2018-07-21T18:11:06.923Z,95795.33
2018-07-21T18:13:37.265Z,95787.93
2018-07-21T18:16:07.713Z,95791.48
2018-07-21T18:18:38.205Z,95791.17
2018-07-21T18:21:08.551Z,95787.47
2018-07-21T18:23:38.923Z,95791.77
2018-07-21T18:26:09.277Z,95793.72
2018-07-21T18:28:39.621Z,95791.56
2018-07-21T18:31:10.002Z,95788.13
2018-07-21T18:33:40.357Z,95793.63
2018-07-21T18:36:10.743Z,95796.55
2018-07-21T18:38:41.291Z,95793.86
2018-07-21T18:41:11.679Z,95795.26
2018-07-21T18:43:42.048Z,95803.30
2018-07-21T18:46:12.585Z,95800.06
2018-07-21T18:48:45.385Z,95801.32
2018-07-21T18:51:15.807Z,95792.88
2018-07-21T18:53:46.303Z,95801.18
2018-07-21T18:56:17.068Z,95797.63
2018-07-21T18:58:47.513Z,95793.48
2018-07-21T19:01:17.865Z,95791.33
2018-07-21T19:03:48.320Z,95789.64
2018-07-21T19:06:18.967Z,95785.32
2018-07-21T19:09:08.817Z,95792.71
2018-07-21T19:11:39.285Z,95797.77
2018-07-21T19:14:09.728Z,95807.58
2018-07-21T19:16:43.988Z,95808.18
2018-07-21T19:19:14.441Z,95802.94
2018-07-21T19:21:45.017Z,95814.08
2018-07-21T19:24:15.479Z,95819.47
2018-07-21T19:26:51.322Z,95823.58
2018-07-21T19:29:22.006Z,95820.62
2018-07-21T19:31:57.603Z,95821.94
2018-07-21T19:34:29.034Z,95833.70
2018-07-21T19:36:59.422Z,95832.57
2018-07-21T19:39:30.906Z,95838.36
2018-07-21T19:42:04.441Z,95845.89
2018-07-21T19:44:35.026Z,95853.09
2018-07-21T19:47:05.875Z,95858.81
2018-07-21T19:49:36.396Z,95853.47
2018-07-21T19:52:07.281Z,95856.59
2018-07-21T19:54:37.760Z,95862.13
2018-07-21T19:57:08.410Z,95864.27
2018-07-21T19:59:38.824Z,95869.50
2018-07-21T20:02:09.220Z,95860.50
2018-07-21T20:04:39.612Z,95865.50
2018-07-21T20:07:10.920Z,95864.66
2018-07-21T20:09:41.316Z,95871.13
2018-07-21T20:12:11.646Z,95879.91
2018-07-21T20:14:42.059Z,95877.28
2018-07-21T20:17:12.752Z,95878.06
2018-07-21T20:19:43.284Z,95877.87
2018-07-21T20:22:13.663Z,95882.38
2018-07-21T20:24:44.038Z,95878.25
2018-07-21T20:27:14.396Z,95879.91
2018-07-21T20:29:44.824Z,95879.92
2018-07-21T20:32:15.194Z,95879.75
2018-07-21T20:34:45.910Z,95881.31
2018-07-21T20:37:16.337Z,95881.74
2018-07-21T20:39:47.352Z,95885.89
2018-07-21T20:42:17.864Z,95883.47
2018-07-21T20:44:48.539Z,95881.31
2018-07-21T20:47:18.971Z,95884.97
2018-07-21T20:49:49.322Z,95889.62
2018-07-21T20:52:19.765Z,95888.23
2018-07-21T20:54:50.224Z,95891.00
2018-07-21T20:57:20.591Z,95889.23
2018-07-21T20:59:50.962Z,95890.38
2018-07-21T21:02:21.355Z,95892.24
2018-07-21T21:04:51.988Z,95893.64
2018-07-21T21:07:22.703Z,95881.88
2018-07-21T21:09:53.099Z,95888.84
2018-07-21T21:12:23.552Z,95888.75
2018-07-21T21:14:54.262Z,95886.86
2018-07-21T21:17:24.660Z,95889.58
2018-07-21T21:19:55.038Z,95891.95
2018-07-21T21:22:25.421Z,95885.14
2018-07-21T21:24:56.345Z,95888.53
2018-07-21T21:27:26.687Z,95884.17
2018-07-21T21:29:57.042Z,95883.80
2018-07-21T21:32:27.489Z,95885.93
2018-07-21T21:34:57.873Z,95887.94
2018-07-21T21:37:27.636Z,95884.17
2018-07-21T21:39:57.464Z,95879.11
2018-07-21T21:42:27.332Z,95880.47
2018-07-21T21:44:57.315Z,95871.92
2018-07-21T21:47:27.124Z,95868.73
2018-07-21T21:49:56.929Z,95872.38
2018-07-21T21:52:27.050Z,95869.21
2018-07-21T21:54:57.129Z,95871.97
2018-07-21T21:57:27.341Z,95876.73
2018-07-21T21:59:57.371Z,95876.45
2018-07-21T22:02:27.414Z,95878.76
2018-07-21T22:04:57.243Z,95875.89
2018-07-21T22:07:29.248Z,95883.12
2018-07-21T22:09:59.023Z,95882.75
2018-07-21T22:12:28.916Z,95883.28
2018-07-21T22:14:58.755Z,95884.91
2018-07-21T22:17:29.247Z,95879.71
2018-07-21T22:19:59.090Z,95877.89
2018-07-21T22:22:28.953Z,95876.08
2018-07-21T22:24:58.907Z,95876.27
2018-07-21T22:27:29.119Z,95884.77
2018-07-21T22:29:58.926Z,95884.34
2018-07-21T22:32:29.425Z,95884.00
2018-07-21T22:35:00.357Z,95884.77
2018-07-21T22:37:30.861Z,95885.72
2018-07-21T22:40:01.187Z,95882.33
2018-07-21T22:42:31.543Z,95878.81
2018-07-21T22:45:01.349Z,95876.09
2018-07-21T22:47:31.721Z,95882.39
2018-07-21T22:50:01.643Z,95880.13
2018-07-21T22:52:32.381Z,95876.48
2018-07-21T22:55:02.190Z,95876.38
2018-07-21T22:57:32.569Z,95879.53
2018-07-21T23:00:02.958Z,95877.27
2018-07-21T23:02:33.321Z,95873.56
2018-07-21T23:05:03.651Z,95877.59
2018-07-21T23:07:34.001Z,95879.91
2018-07-21T23:10:04.463Z,95886.13
2018-07-21T23:12:35.253Z,95883.36
2018-07-21T23:15:07.549Z,95885.16
2018-07-21T23:17:37.397Z,95888.45
2018-07-21T23:20:08.824Z,95888.69
2018-07-21T23:22:39.383Z,95883.39
2018-07-21T23:25:09.275Z,95881.64
2018-07-21T23:27:39.105Z,95889.12
2018-07-21T23:30:08.947Z,95890.11
2018-07-21T23:32:40.415Z,95881.36
2018-07-21T23:35:10.273Z,95878.57
2018-07-21T23:37:40.187Z,95880.74
2018-07-21T23:40:09.621Z,95882.70
2018-07-21T23:42:39.390Z,95882.03
2018-07-21T23:52:20.581Z,95875.72
2018-07-21T23:54:54.724Z,95872.89
2018-07-21T23:57:24.526Z,95882.44
2018-07-21T23:59:54.405Z,95881.59
